Time;durP1;ratioP1;P1;durP2;ratioP2;P2;SDS_P1;SDS_P2;PMS_P1;PMS_P2;Temp;Humidity;BMP_temperature;BMP_pressure;BME280_temperature;BME280_humidity;BME280_pressure;Samples;Min_cycle;Max_cycle;Signal;HPM_P1;HPM_P2
2022/06/30 00:01:15;;;;;;;7.23;5.40;;;18.50;99.90;;;;;;4992389;28;21532;-67
2022/06/30 00:03:42;;;;;;;13.30;5.97;;;18.50;99.90;;;;;;4992795;28;21000;-67
2022/06/30 00:06:09;;;;;;;7.00;5.40;;;18.50;99.90;;;;;;4992617;28;20474;-68
2022/06/30 00:08:36;;;;;;;7.07;5.60;;;18.40;99.90;;;;;;4992686;28;20454;-67
2022/06/30 00:11:07;;;;;;;6.77;6.03;;;18.40;99.90;;;;;;4992649;28;20935;-70
2022/06/30 00:13:35;;;;;;;6.43;5.40;;;18.40;99.90;;;;;;4973451;28;20938;-67
2022/06/30 00:16:03;;;;;;;6.17;5.60;;;18.40;99.90;;;;;;4973326;28;20927;-68
2022/06/30 00:18:32;;;;;;;6.07;5.00;;;18.30;99.90;;;;;;4991958;28;20498;-67
2022/06/30 00:20:59;;;;;;;7.60;6.03;;;18.30;99.90;;;;;;4992471;28;20443;-67
2022/06/30 00:23:26;;;;;;;7.23;5.03;;;18.30;99.90;;;;;;4992563;28;20854;-67
2022/06/30 00:25:54;;;;;;;7.57;5.40;;;18.20;99.90;;;;;;4992212;28;20474;-67
2022/06/30 00:28:21;;;;;;;6.20;5.50;;;18.10;99.90;;;;;;4992329;28;20444;-68
2022/06/30 00:30:48;;;;;;;7.97;4.90;;;18.10;99.90;;;;;;4992438;28;20460;-67
2022/06/30 00:33:15;;;;;;;12.07;4.80;;;18.00;99.90;;;;;;4992635;28;20439;-67
2022/06/30 00:35:43;;;;;;;5.30;4.63;;;18.00;99.90;;;;;;4991980;28;20436;-68
2022/06/30 00:38:10;;;;;;;9.10;5.40;;;18.10;99.90;;;;;;4992581;28;20479;-67
2022/06/30 00:40:39;;;;;;;10.03;5.87;;;18.00;99.90;;;;;;4992146;28;20486;-67
2022/06/30 00:43:06;;;;;;;7.10;5.40;;;18.00;99.90;;;;;;4992453;28;20436;-68
2022/06/30 00:45:39;;;;;;;9.13;5.30;;;18.00;99.90;;;;;;4992040;28;20470;-68
2022/06/30 00:48:06;;;;;;;6.73;4.60;;;18.00;99.90;;;;;;4992255;28;20444;-67
2022/06/30 00:50:33;;;;;;;8.33;5.20;;;18.10;99.90;;;;;;4991978;28;20462;-68
2022/06/30 00:53:05;;;;;;;12.23;5.30;;;18.00;99.90;;;;;;4992440;28;20440;-69
2022/06/30 00:55:32;;;;;;;10.17;5.40;;;17.90;99.90;;;;;;4992207;28;20430;-67
2022/06/30 00:58:01;;;;;;;6.70;4.70;;;17.90;99.90;;;;;;4992443;28;20444;-67
2022/06/30 01:00:30;;;;;;;6.33;5.33;;;17.90;99.90;;;;;;4992031;28;20487;-68
2022/06/30 01:02:59;;;;;;;5.80;4.90;;;17.80;99.90;;;;;;4992369;28;20539;-67
2022/06/30 01:05:27;;;;;;;6.03;5.20;;;17.80;99.90;;;;;;4991769;28;20447;-67
2022/06/30 01:07:55;;;;;;;6.00;5.37;;;17.80;99.90;;;;;;4991943;28;20520;-68
2022/06/30 01:13:08;;;;;;;6.80;4.73;;;17.70;99.90;;;;;;4995950;28;20502;-67
2022/06/30 01:15:36;;;;;;;5.83;4.80;;;17.70;99.90;;;;;;4995473;28;20449;-67
2022/06/30 01:18:04;;;;;;;9.50;4.57;;;17.60;99.90;;;;;;4995643;28;20526;-67
2022/06/30 01:20:33;;;;;;;5.73;4.43;;;17.70;99.90;;;;;;4995284;28;20507;-68
2022/06/30 01:23:04;;;;;;;5.40;4.90;;;17.70;99.90;;;;;;4995832;28;20791;-67
2022/06/30 01:25:31;;;;;;;5.73;5.10;;;17.70;99.90;;;;;;4995185;28;20440;-67
2022/06/30 01:27:58;;;;;;;5.60;3.97;;;17.70;99.90;;;;;;4995615;28;20502;-67
2022/06/30 01:30:25;;;;;;;7.97;5.10;;;17.70;99.90;;;;;;4995032;28;20474;-67
2022/06/30 01:32:53;;;;;;;6.87;5.27;;;17.80;99.90;;;;;;4995228;28;20440;-67
2022/06/30 01:35:20;;;;;;;5.47;4.20;;;17.80;99.90;;;;;;4994659;28;20436;-67
2022/06/30 01:37:50;;;;;;;5.10;4.40;;;17.80;99.90;;;;;;4995079;28;20506;-67
2022/06/30 01:40:20;;;;;;;6.47;5.00;;;17.70;99.90;;;;;;4995348;28;20483;-67
2022/06/30 01:42:47;;;;;;;5.93;4.87;;;17.60;99.90;;;;;;4995510;28;20534;-67
2022/06/30 01:45:15;;;;;;;10.43;5.50;;;17.60;99.90;;;;;;4994568;28;20953;-67
2022/06/30 01:47:42;;;;;;;6.13;4.97;;;17.50;99.90;;;;;;4995121;28;20462;-67
2022/06/30 01:50:11;;;;;;;6.17;4.40;;;17.50;99.90;;;;;;4994777;28;20988;-67
2022/06/30 01:52:38;;;;;;;9.10;5.00;;;17.50;99.90;;;;;;4995230;28;20442;-67
2022/06/30 01:55:06;;;;;;;7.87;5.60;;;17.50;99.90;;;;;;4994330;28;20443;-67
2022/06/30 01:57:36;;;;;;;7.30;4.83;;;17.50;99.90;;;;;;4994997;28;20444;-67
2022/06/30 02:00:05;;;;;;;7.80;4.60;;;17.50;99.90;;;;;;4995198;28;20513;-67
2022/06/30 02:02:32;;;;;;;5.73;4.73;;;17.50;99.90;;;;;;4994430;28;20489;-67
2022/06/30 02:04:59;;;;;;;7.83;5.73;;;17.50;99.90;;;;;;4994977;28;20501;-67
2022/06/30 02:07:26;;;;;;;8.67;4.50;;;17.50;99.90;;;;;;4994728;28;20444;-67
2022/06/30 02:09:53;;;;;;;5.57;4.20;;;17.40;99.90;;;;;;4994770;28;20440;-67
2022/06/30 02:15:08;;;;;;;10.73;5.13;;;17.30;99.90;;;;;;4994634;28;21053;-67
2022/06/30 02:17:35;;;;;;;6.03;4.33;;;17.30;99.90;;;;;;4994016;28;20974;-67
2022/06/30 02:20:03;;;;;;;4.33;3.90;;;17.30;99.90;;;;;;4994390;28;20491;-67
2022/06/30 02:22:31;;;;;;;5.57;4.70;;;17.30;99.90;;;;;;4993347;28;20439;-67
2022/06/30 02:24:58;;;;;;;12.17;5.53;;;17.30;99.90;;;;;;4994704;28;20535;-67
2022/06/30 02:27:25;;;;;;;6.97;5.00;;;17.30;99.90;;;;;;4994082;28;20595;-67
2022/06/30 02:29:52;;;;;;;6.40;4.17;;;17.20;99.90;;;;;;4993945;28;20510;-67
2022/06/30 02:32:22;;;;;;;5.20;4.70;;;17.20;99.90;;;;;;4994236;28;20502;-67
2022/06/30 02:34:49;;;;;;;5.73;4.40;;;17.20;99.50;;;;;;4993871;28;20440;-67
2022/06/30 02:37:16;;;;;;;10.40;5.50;;;17.00;99.40;;;;;;4994114;28;20443;-67
2022/06/30 02:39:44;;;;;;;10.73;5.33;;;17.00;99.80;;;;;;4994135;28;20483;-67
2022/06/30 02:42:11;;;;;;;6.80;4.43;;;16.90;99.90;;;;;;4994052;28;20492;-67
2022/06/30 02:44:38;;;;;;;6.90;4.27;;;16.90;99.90;;;;;;4993923;28;20439;-67
2022/06/30 02:47:05;;;;;;;5.77;4.57;;;16.80;99.90;;;;;;4993720;28;20436;-67
2022/06/30 02:49:35;;;;;;;7.03;5.20;;;16.80;99.90;;;;;;4993760;28;20443;-67
2022/06/30 02:52:02;;;;;;;5.63;4.20;;;16.80;99.90;;;;;;4993618;28;20530;-67
2022/06/30 02:54:29;;;;;;;6.20;4.90;;;16.80;99.90;;;;;;4993932;28;20494;-67
2022/06/30 02:56:56;;;;;;;8.03;5.53;;;16.70;99.90;;;;;;4993435;28;20815;-67
2022/06/30 02:59:23;;;;;;;10.37;5.17;;;16.70;99.90;;;;;;4994088;28;20487;-67
2022/06/30 03:01:50;;;;;;;6.70;5.80;;;16.70;99.90;;;;;;4993376;28;20459;-67
2022/06/30 03:04:18;;;;;;;7.37;4.87;;;16.70;99.90;;;;;;4993749;28;20479;-67
2022/06/30 03:06:46;;;;;;;6.73;5.30;;;16.70;99.90;;;;;;4992990;28;20451;-67
2022/06/30 03:09:13;;;;;;;5.70;5.10;;;16.60;99.90;;;;;;4993682;28;20443;-67
2022/06/30 03:11:40;;;;;;;5.83;5.20;;;16.60;99.90;;;;;;4993335;28;20851;-67
2022/06/30 03:14:07;;;;;;;8.10;5.20;;;16.50;99.90;;;;;;4993586;28;20479;-67
2022/06/30 03:16:34;;;;;;;7.00;6.30;;;16.60;99.90;;;;;;4993056;28;20439;-69
2022/06/30 03:19:01;;;;;;;8.30;5.27;;;16.60;99.90;;;;;;4993617;28;20443;-67
2022/06/30 03:21:28;;;;;;;6.60;5.70;;;16.60;99.90;;;;;;4993181;28;20805;-67
2022/06/30 03:23:57;;;;;;;5.87;4.43;;;16.60;99.90;;;;;;4993788;28;20468;-67
2022/06/30 03:26:24;;;;;;;6.13;4.80;;;16.70;99.90;;;;;;4993283;28;20463;-67
2022/06/30 03:28:51;;;;;;;7.67;5.60;;;16.70;99.90;;;;;;4993079;28;20936;-67
2022/06/30 03:31:18;;;;;;;6.30;5.07;;;16.70;99.90;;;;;;4992670;28;20985;-66
2022/06/30 03:33:45;;;;;;;5.83;5.20;;;16.70;99.90;;;;;;4992912;28;20503;-67
2022/06/30 03:36:12;;;;;;;7.87;5.10;;;16.60;99.90;;;;;;4993016;28;20447;-66
2022/06/30 03:38:39;;;;;;;4.97;4.30;;;16.60;99.90;;;;;;4993182;28;20793;-67
2022/06/30 03:41:07;;;;;;;5.87;5.27;;;16.60;99.90;;;;;;4992710;28;20493;-67
2022/06/30 03:43:35;;;;;;;7.60;4.80;;;16.60;99.90;;;;;;4993084;28;20495;-67
2022/06/30 03:46:02;;;;;;;5.90;5.20;;;16.70;99.90;;;;;;4993042;28;20546;-67
2022/06/30 03:48:29;;;;;;;14.20;5.97;;;16.70;99.90;;;;;;4993039;28;20898;-68
2022/06/30 03:50:56;;;;;;;11.30;5.27;;;16.60;99.90;;;;;;4992415;28;20440;-67
2022/06/30 03:53:23;;;;;;;7.73;6.93;;;16.60;99.90;;;;;;4993087;28;20444;-67
2022/06/30 03:55:50;;;;;;;10.63;8.97;;;16.60;99.90;;;;;;4992740;28;20448;-67
2022/06/30 03:58:18;;;;;;;16.87;12.90;;;16.60;99.90;;;;;;4992693;28;20518;-66
2022/06/30 04:00:45;;;;;;;23.77;16.90;;;16.70;99.90;;;;;;4992490;28;20483;-67
2022/06/30 04:03:12;;;;;;;19.73;10.77;;;16.70;99.90;;;;;;4993206;28;20474;-67
2022/06/30 04:05:40;;;;;;;10.93;8.10;;;16.70;99.90;;;;;;4993086;28;20440;-67
2022/06/30 04:08:07;;;;;;;12.23;7.97;;;16.60;99.90;;;;;;4993109;28;20446;-67
2022/06/30 04:10:35;;;;;;;10.90;7.13;;;16.70;99.90;;;;;;4993018;28;20439;-67
2022/06/30 04:13:02;;;;;;;7.03;6.30;;;16.70;99.90;;;;;;4993217;28;20519;-67
2022/06/30 04:15:31;;;;;;;8.90;5.87;;;16.80;99.90;;;;;;4992895;28;20526;-67
2022/06/30 04:17:58;;;;;;;12.30;7.20;;;16.80;99.90;;;;;;4993150;28;20443;-67
2022/06/30 04:20:25;;;;;;;5.90;5.03;;;16.90;99.90;;;;;;4992696;28;20479;-67
2022/06/30 04:22:53;;;;;;;8.93;4.27;;;17.00;99.90;;;;;;4993158;28;20938;-67
2022/06/30 04:25:21;;;;;;;7.90;4.70;;;16.90;99.90;;;;;;4992777;28;20436;-67
2022/06/30 04:27:50;;;;;;;5.50;4.77;;;16.90;99.90;;;;;;4992844;28;20447;-66
2022/06/30 04:32:37;;;;;;;5.90;4.80;;;17.00;99.90;;;;;;4992353;28;20475;-67
2022/06/30 04:33:08;;;;;;;5.60;5.00;;;17.00;99.90;;;;;;4992517;28;20439;-67
2022/06/30 04:35:35;;;;;;;7.27;5.80;;;17.00;99.90;;;;;;4992671;28;20942;-70
2022/06/30 04:38:03;;;;;;;9.23;5.43;;;17.10;99.90;;;;;;4993015;28;20439;-67
2022/06/30 04:43:17;;;;;;;6.13;4.77;;;17.20;99.90;;;;;;4992623;28;20442;-67
2022/06/30 04:45:44;;;;;;;6.47;5.23;;;17.20;99.90;;;;;;4994564;28;20943;-67
2022/06/30 04:48:12;;;;;;;5.93;4.30;;;17.30;99.90;;;;;;4995727;28;20447;-67
2022/06/30 04:50:39;;;;;;;6.07;4.30;;;17.40;99.90;;;;;;4996699;28;20443;-69
2022/06/30 04:53:06;;;;;;;6.37;4.80;;;17.50;99.90;;;;;;4996284;28;20447;-67
2022/06/30 04:55:33;;;;;;;6.70;4.77;;;17.60;99.90;;;;;;4996571;28;20451;-67
2022/06/30 04:58:01;;;;;;;6.37;5.40;;;17.60;99.90;;;;;;4996495;28;20792;-67
2022/06/30 05:00:28;;;;;;;5.80;5.23;;;17.70;99.90;;;;;;4996450;28;20490;-68
2022/06/30 05:02:55;;;;;;;8.17;6.30;;;17.80;99.90;;;;;;4995690;28;20431;-67
2022/06/30 05:05:24;;;;;;;9.03;5.00;;;17.80;99.90;;;;;;4996281;28;20440;-67
2022/06/30 05:07:51;;;;;;;6.83;5.63;;;17.90;99.90;;;;;;4995789;28;20444;-66
2022/06/30 05:10:18;;;;;;;5.70;4.70;;;18.00;99.90;;;;;;4996468;28;20439;-67
2022/06/30 05:12:45;;;;;;;6.43;4.50;;;18.10;99.90;;;;;;4995948;28;20514;-67
2022/06/30 05:15:12;;;;;;;5.80;4.63;;;18.20;99.90;;;;;;4996161;28;20444;-67
2022/06/30 05:17:39;;;;;;;10.50;4.57;;;18.30;99.90;;;;;;4995977;28;20534;-67
2022/06/30 05:20:07;;;;;;;6.80;5.30;;;18.40;99.90;;;;;;4996211;28;20471;-66
2022/06/30 05:22:36;;;;;;;7.67;4.90;;;18.50;99.90;;;;;;4995201;28;20506;-67
2022/06/30 05:27:48;;;;;;;8.53;5.07;;;18.60;99.90;;;;;;4995057;28;20822;-67
2022/06/30 05:30:16;;;;;;;10.20;5.00;;;18.70;99.90;;;;;;4995512;28;20482;-67
2022/06/30 05:32:43;;;;;;;7.00;4.50;;;18.80;99.90;;;;;;4995407;28;20934;-67
2022/06/30 05:35:10;;;;;;;7.60;4.30;;;18.90;99.90;;;;;;4995918;28;20443;-67
2022/06/30 05:37:39;;;;;;;11.50;4.63;;;18.90;99.90;;;;;;4987853;28;20436;-69
2022/06/30 05:40:08;;;;;;;7.00;4.60;;;18.90;99.90;;;;;;4990212;28;21013;-67
2022/06/30 05:42:35;;;;;;;5.70;4.30;;;19.00;99.90;;;;;;4989099;28;20487;-67
2022/06/30 05:45:02;;;;;;;7.93;4.30;;;19.10;99.90;;;;;;4989833;28;20444;-68
2022/06/30 05:47:29;;;;;;;6.33;4.80;;;19.10;99.90;;;;;;4968620;28;20455;-69
2022/06/30 05:49:57;;;;;;;4.37;3.50;;;19.20;99.70;;;;;;4991339;28;20420;-69
2022/06/30 05:52:24;;;;;;;11.87;4.70;;;19.30;99.90;;;;;;4994705;28;20842;-67
2022/06/30 05:54:52;;;;;;;4.80;4.03;;;19.40;99.70;;;;;;4994677;28;20645;-67
2022/06/30 05:57:19;;;;;;;5.23;4.23;;;19.40;99.40;;;;;;4992968;28;20479;-68
2022/06/30 05:59:46;;;;;;;5.67;4.20;;;19.50;99.30;;;;;;4994432;28;20440;-67
2022/06/30 06:02:14;;;;;;;5.90;4.43;;;19.70;99.10;;;;;;4993922;28;20570;-68
2022/06/30 06:04:41;;;;;;;4.70;3.90;;;19.80;99.20;;;;;;4994529;28;20806;-67
2022/06/30 06:07:08;;;;;;;6.83;4.20;;;19.90;99.10;;;;;;4986810;28;20995;-68
2022/06/30 06:09:35;;;;;;;6.53;4.60;;;20.00;99.40;;;;;;4984130;28;20435;-67
2022/06/30 06:12:04;;;;;;;7.80;4.30;;;20.10;99.30;;;;;;4992130;28;20440;-67
2022/06/30 06:14:31;;;;;;;6.27;3.80;;;20.20;99.00;;;;;;4987959;28;20475;-68
2022/06/30 06:16:58;;;;;;;5.47;3.60;;;20.40;99.00;;;;;;4994906;28;20440;-68
2022/06/30 06:19:25;;;;;;;6.93;3.70;;;20.50;99.10;;;;;;4990621;28;20444;-67
2022/06/30 06:21:52;;;;;;;4.60;4.03;;;20.60;98.70;;;;;;4992810;28;20534;-71
2022/06/30 06:24:19;;;;;;;7.13;3.90;;;20.80;98.90;;;;;;4992788;28;20946;-67
2022/06/30 06:26:47;;;;;;;5.53;3.47;;;21.00;98.70;;;;;;4991491;28;20439;-70
2022/06/30 06:29:16;;;;;;;5.60;3.40;;;21.10;98.00;;;;;;4988289;28;20472;-67
2022/06/30 06:31:44;;;;;;;7.33;3.90;;;21.40;98.00;;;;;;4989822;28;20439;-68
2022/06/30 06:34:11;;;;;;;4.90;3.53;;;21.60;97.70;;;;;;4992220;28;20997;-67
2022/06/30 06:36:39;;;;;;;6.33;3.47;;;21.90;96.30;;;;;;4992397;28;20444;-68
2022/06/30 06:39:06;;;;;;;7.73;3.47;;;22.10;96.10;;;;;;4992431;28;20454;-67
2022/06/30 06:41:34;;;;;;;6.90;3.90;;;22.30;95.20;;;;;;4992414;28;20486;-68
2022/06/30 06:44:01;;;;;;;5.80;4.37;;;22.60;94.80;;;;;;4992156;28;20765;-69
2022/06/30 06:46:30;;;;;;;4.83;3.67;;;22.70;93.40;;;;;;4991419;28;20496;-69
2022/06/30 06:48:59;;;;;;;7.13;4.33;;;22.80;93.10;;;;;;4991586;28;20960;-68
2022/06/30 06:51:26;;;;;;;7.87;3.67;;;22.90;93.80;;;;;;4991682;28;20464;-67
2022/06/30 06:53:53;;;;;;;5.40;3.70;;;23.10;93.60;;;;;;4991176;28;20448;-69
2022/06/30 06:56:21;;;;;;;4.30;3.90;;;23.20;93.70;;;;;;4991324;28;20443;-67
2022/06/30 06:58:47;;;;;;;6.60;3.50;;;23.20;92.90;;;;;;4991967;28;20909;-67
2022/06/30 07:01:15;;;;;;;5.07;4.17;;;23.20;92.70;;;;;;4991353;28;20569;-68
2022/06/30 07:03:43;;;;;;;4.67;4.17;;;23.30;92.40;;;;;;4991900;28;20451;-67
2022/06/30 07:06:11;;;;;;;4.93;3.17;;;23.30;92.30;;;;;;4992201;28;20442;-67
2022/06/30 07:08:38;;;;;;;5.53;3.80;;;23.30;92.50;;;;;;4990662;28;20446;-67
2022/06/30 07:11:05;;;;;;;6.63;3.40;;;23.30;92.10;;;;;;4991467;28;20909;-68
2022/06/30 07:13:35;;;;;;;10.77;4.63;;;23.30;92.00;;;;;;4991427;28;20444;-69
2022/06/30 07:16:02;;;;;;;8.27;3.80;;;23.40;92.30;;;;;;4991347;28;20980;-68
2022/06/30 07:18:29;;;;;;;7.13;3.90;;;23.40;92.60;;;;;;4991523;28;20451;-67
2022/06/30 07:20:58;;;;;;;6.20;3.83;;;23.40;93.20;;;;;;4991265;28;20478;-69
2022/06/30 07:23:25;;;;;;;7.30;5.83;;;23.50;93.10;;;;;;4991479;28;20537;-67
2022/06/30 07:25:53;;;;;;;7.40;4.53;;;23.50;93.30;;;;;;4991556;28;20440;-67
2022/06/30 07:28:20;;;;;;;6.07;4.00;;;23.60;93.20;;;;;;4991516;28;20455;-68
2022/06/30 07:30:47;;;;;;;7.90;3.70;;;23.70;91.90;;;;;;4990738;28;20444;-67
2022/06/30 07:33:14;;;;;;;6.10;4.37;;;23.70;92.00;;;;;;4991438;28;20447;-67
2022/06/30 07:35:41;;;;;;;8.37;4.23;;;23.70;92.80;;;;;;4991338;28;20470;-67
2022/06/30 07:38:09;;;;;;;6.70;3.70;;;23.80;92.50;;;;;;4991845;28;20534;-67
2022/06/30 07:40:37;;;;;;;4.37;3.20;;;23.80;92.30;;;;;;4990949;28;20506;-67
2022/06/30 07:43:05;;;;;;;9.87;5.47;;;23.90;92.30;;;;;;4991297;28;20435;-67
2022/06/30 07:45:32;;;;;;;4.00;3.23;;;24.00;92.10;;;;;;4990682;28;20434;-67
2022/06/30 07:47:59;;;;;;;6.93;3.57;;;24.00;92.00;;;;;;4991238;28;20467;-69
2022/06/30 07:50:26;;;;;;;5.20;3.90;;;24.10;92.20;;;;;;4987567;28;20518;-67
2022/06/30 07:52:53;;;;;;;6.73;3.83;;;24.10;92.20;;;;;;4990837;28;20432;-67
2022/06/30 07:55:22;;;;;;;10.50;3.37;;;24.20;91.50;;;;;;4990564;28;20917;-67
2022/06/30 07:57:49;;;;;;;10.73;4.53;;;24.20;91.50;;;;;;4990697;28;20454;-69
2022/06/30 08:00:18;;;;;;;7.27;4.07;;;24.30;91.60;;;;;;4990548;28;20502;-68
2022/06/30 08:02:45;;;;;;;5.20;4.00;;;24.50;92.20;;;;;;4990624;28;20482;-67
2022/06/30 08:05:13;;;;;;;4.00;3.40;;;24.50;91.90;;;;;;4990763;28;20443;-67
2022/06/30 08:07:40;;;;;;;7.60;4.20;;;24.60;91.90;;;;;;4990754;28;20451;-69
2022/06/30 08:10:08;;;;;;;6.73;3.60;;;24.70;91.90;;;;;;4990378;28;20432;-69
2022/06/30 08:12:37;;;;;;;7.23;4.40;;;24.80;91.50;;;;;;4990535;28;20559;-68
2022/06/30 08:15:04;;;;;;;5.03;3.43;;;24.90;90.30;;;;;;4990215;28;20446;-67
2022/06/30 08:17:32;;;;;;;4.73;3.50;;;25.00;90.30;;;;;;4989918;28;20535;-69
2022/06/30 08:19:59;;;;;;;6.77;3.40;;;25.10;88.80;;;;;;4991318;28;20942;-68
2022/06/30 08:22:27;;;;;;;5.80;3.80;;;25.10;84.30;;;;;;4994282;28;20483;-67
2022/06/30 08:24:55;;;;;;;4.67;3.20;;;25.20;87.60;;;;;;4994707;28;20998;-67
2022/06/30 08:27:22;;;;;;;5.73;3.73;;;25.30;85.90;;;;;;4993815;28;20440;-67
2022/06/30 08:29:52;;;;;;;9.50;4.40;;;25.40;85.90;;;;;;4994467;28;20550;-68
2022/06/30 08:32:19;;;;;;;6.07;3.97;;;25.40;85.00;;;;;;4993883;28;20448;-69
2022/06/30 08:34:46;;;;;;;6.90;3.97;;;25.50;84.30;;;;;;4994533;28;20432;-70
2022/06/30 08:37:13;;;;;;;7.80;3.10;;;25.60;82.70;;;;;;4990748;28;20509;-67
2022/06/30 08:42:26;;;;;;;6.37;3.77;;;25.70;80.80;;;;;;4994324;28;20470;-67
2022/06/30 08:47:39;;;;;;;5.10;3.03;;;25.80;80.60;;;;;;4990920;28;20430;-68
2022/06/30 08:50:09;;;;;;;7.50;4.00;;;25.80;79.00;;;;;;4994362;28;20439;-67
2022/06/30 08:52:41;;;;;;;4.60;3.60;;;25.90;79.00;;;;;;4993442;28;20854;-70
2022/06/30 08:55:14;;;;;;;4.10;3.40;;;25.90;80.50;;;;;;4990025;28;20450;-68
2022/06/30 08:57:43;;;;;;;4.43;3.60;;;26.00;79.80;;;;;;4993240;28;20757;-68
2022/06/30 09:00:14;;;;;;;5.93;3.33;;;26.10;78.80;;;;;;4993862;28;20444;-68
2022/06/30 09:02:41;;;;;;;6.40;3.57;;;26.10;76.90;;;;;;4992879;28;20475;-68
2022/06/30 09:05:09;;;;;;;11.70;3.73;;;26.20;77.70;;;;;;4988394;28;20910;-68
2022/06/30 09:07:37;;;;;;;4.00;2.70;;;26.30;79.00;;;;;;4992171;28;20497;-70
2022/06/30 09:10:05;;;;;;;5.40;3.67;;;26.40;76.20;;;;;;4991882;28;20448;-68
2022/06/30 09:12:38;;;;;;;7.00;3.80;;;26.40;75.60;;;;;;4992878;28;21075;-67
2022/06/30 09:15:06;;;;;;;3.97;3.57;;;26.50;76.20;;;;;;4976934;28;20444;-70
2022/06/30 09:17:35;;;;;;;4.17;3.23;;;26.50;73.80;;;;;;4992050;28;20499;-68
2022/06/30 09:20:03;;;;;;;7.17;3.57;;;26.60;74.50;;;;;;4993687;28;20494;-68
2022/06/30 09:22:33;;;;;;;4.33;3.27;;;26.70;75.60;;;;;;4992212;28;20482;-68
2022/06/30 09:25:03;;;;;;;6.80;3.67;;;26.70;74.20;;;;;;4993197;28;20431;-68
2022/06/30 09:27:32;;;;;;;7.37;3.77;;;26.80;74.50;;;;;;4992940;28;20440;-69
2022/06/30 09:30:09;;;;;;;4.37;3.00;;;26.90;74.20;;;;;;4991986;28;20467;-69
2022/06/30 09:32:48;;;;;;;4.10;3.70;;;27.00;74.60;;;;;;4991435;28;20801;-68
2022/06/30 09:35:16;;;;;;;6.03;3.10;;;27.10;74.30;;;;;;4993255;28;20471;-68
2022/06/30 09:37:43;;;;;;;9.07;3.43;;;27.20;74.40;;;;;;4992776;28;20518;-67
2022/06/30 09:40:11;;;;;;;6.80;3.27;;;27.20;69.50;;;;;;4992122;28;20863;-68
2022/06/30 09:42:41;;;;;;;9.77;3.60;;;27.30;70.10;;;;;;4992820;28;20598;-67
2022/06/30 09:45:10;;;;;;;4.03;3.30;;;27.40;69.80;;;;;;4992494;28;20451;-69
2022/06/30 09:47:51;;;;;;;4.70;2.93;;;27.50;71.10;;;;;;4992825;28;20798;-67
2022/06/30 09:50:20;;;;;;;6.30;2.90;;;27.60;69.90;;;;;;4992452;28;20446;-67
2022/06/30 09:53:03;;;;;;;5.23;3.83;;;27.50;67.90;;;;;;4989477;28;20435;-68
2022/06/30 09:55:39;;;;;;;7.40;3.30;;;27.60;67.70;;;;;;4993179;28;20970;-68
2022/06/30 09:58:07;;;;;;;6.90;3.60;;;27.60;69.60;;;;;;4990464;28;20455;-68
2022/06/30 10:00:44;;;;;;;5.80;3.20;;;27.80;69.60;;;;;;4993010;28;20440;-67
2022/06/30 10:03:12;;;;;;;7.53;4.10;;;27.90;68.20;;;;;;4989088;28;20558;-67
2022/06/30 10:05:44;;;;;;;10.30;3.27;;;27.90;66.90;;;;;;4993185;28;20448;-68
2022/06/30 10:08:12;;;;;;;6.53;3.83;;;28.00;66.50;;;;;;4992606;28;20478;-68
2022/06/30 10:10:42;;;;;;;5.50;3.93;;;28.00;68.80;;;;;;4992448;28;20744;-68
2022/06/30 10:13:14;;;;;;;3.70;3.03;;;28.10;68.30;;;;;;4990402;28;20542;-68
2022/06/30 10:15:42;;;;;;;6.90;3.37;;;28.20;65.00;;;;;;4992295;28;20451;-69
2022/06/30 10:18:09;;;;;;;6.00;3.73;;;28.20;66.80;;;;;;4988735;28;20436;-68
2022/06/30 10:20:38;;;;;;;3.77;3.17;;;28.40;67.20;;;;;;4992273;28;20440;-68
2022/06/30 10:23:08;;;;;;;6.43;3.40;;;28.40;67.60;;;;;;4991337;28;20566;-68
2022/06/30 10:25:37;;;;;;;4.00;2.93;;;28.50;66.60;;;;;;4992492;28;20436;-68
2022/06/30 10:28:05;;;;;;;4.63;3.43;;;28.50;66.40;;;;;;4991309;28;20479;-68
2022/06/30 10:30:43;;;;;;;5.13;3.30;;;28.50;65.50;;;;;;4991842;28;20471;-68
2022/06/30 10:33:15;;;;;;;4.20;2.97;;;28.60;64.30;;;;;;4988789;28;20440;-68
2022/06/30 10:35:45;;;;;;;4.73;3.03;;;28.60;63.10;;;;;;4992460;28;20847;-67
2022/06/30 10:38:24;;;;;;;6.40;3.03;;;28.60;62.20;;;;;;4992422;28;20447;-68
2022/06/30 10:40:59;;;;;;;4.30;2.73;;;28.70;62.20;;;;;;4990315;28;20442;-67
2022/06/30 10:43:26;;;;;;;8.57;3.67;;;28.80;60.30;;;;;;4991322;28;20490;-70
2022/06/30 10:45:59;;;;;;;7.00;3.00;;;28.80;63.00;;;;;;4992625;28;20451;-68
2022/06/30 10:48:28;;;;;;;8.43;3.63;;;28.80;63.70;;;;;;4991930;28;22292;-67
2022/06/30 10:50:57;;;;;;;5.53;3.67;;;28.90;65.60;;;;;;4992350;28;20440;-68
2022/06/30 10:53:51;;;;;;;8.00;4.23;;;29.00;65.00;;;;;;4992062;28;20439;-68
2022/06/30 10:56:19;;;;;;;6.57;4.13;;;29.10;61.50;;;;;;4990140;28;20476;-68
2022/06/30 10:59:11;;;;;;;6.67;4.27;;;29.10;58.40;;;;;;4990471;28;20522;-68
2022/06/30 11:01:39;;;;;;;5.27;4.20;;;29.10;61.10;;;;;;4992361;28;20459;-68
2022/06/30 11:04:10;;;;;;;7.40;5.47;;;29.20;62.40;;;;;;4991922;28;20439;-67
2022/06/30 11:06:58;;;;;;;8.00;3.50;;;29.20;60.10;;;;;;4990893;28;20490;-68
2022/06/30 11:10:05;;;;;;;5.27;2.83;;;29.30;61.50;;;;;;4991759;28;20442;-69
2022/06/30 11:12:59;;;;;;;11.73;5.07;;;29.30;58.80;;;;;;4990714;28;20486;-68
2022/06/30 11:15:55;;;;;;;4.90;3.17;;;29.30;58.40;;;;;;4992479;28;20448;-67
2022/06/30 11:18:23;;;;;;;7.47;3.97;;;29.30;56.30;;;;;;4989040;28;20475;-68
2022/06/30 11:20:52;;;;;;;6.40;3.57;;;29.40;58.30;;;;;;4991607;28;20530;-68
2022/06/30 11:23:21;;;;;;;7.10;4.60;;;29.30;58.10;;;;;;4991168;28;20487;-68
2022/06/30 11:28:38;;;;;;;6.30;3.40;;;29.40;57.30;;;;;;4991235;28;20427;-68
2022/06/30 11:31:06;;;;;;;5.00;3.40;;;29.40;56.10;;;;;;4991734;28;20440;-68
2022/06/30 11:33:33;;;;;;;6.53;4.03;;;29.40;57.90;;;;;;4991713;28;21004;-67
2022/06/30 11:36:09;;;;;;;4.47;3.03;;;29.40;58.60;;;;;;4991013;28;20436;-69
2022/06/30 11:38:37;;;;;;;20.70;5.83;;;29.50;58.90;;;;;;4991212;28;20969;-69
2022/06/30 11:43:54;;;;;;;7.33;3.77;;;29.60;57.60;;;;;;4990546;28;20493;-67
2022/06/30 11:46:21;;;;;;;8.10;3.20;;;29.50;54.90;;;;;;4990200;28;20451;-69
2022/06/30 11:48:49;;;;;;;8.60;3.43;;;29.50;55.80;;;;;;4987345;28;20526;-68
2022/06/30 11:51:16;;;;;;;7.57;3.43;;;29.50;55.30;;;;;;4991327;28;20447;-68
2022/06/30 11:53:45;;;;;;;7.03;2.93;;;29.50;57.60;;;;;;4991380;28;20451;-67
2022/06/30 11:56:12;;;;;;;10.93;4.03;;;29.60;57.50;;;;;;4990688;28;20490;-68
2022/06/30 11:58:40;;;;;;;7.20;3.40;;;29.60;57.10;;;;;;4990443;28;20498;-68
2022/06/30 12:01:16;;;;;;;6.00;3.03;;;29.70;57.10;;;;;;4990623;28;20499;-68
2022/06/30 12:03:48;;;;;;;6.10;2.63;;;29.70;56.50;;;;;;4990364;28;20515;-68
2022/06/30 12:06:26;;;;;;;4.80;2.60;;;29.70;56.60;;;;;;4987554;28;20447;-68
2022/06/30 12:08:56;;;;;;;3.90;2.20;;;29.80;54.80;;;;;;4989969;28;20531;-68
2022/06/30 12:11:30;;;;;;;9.43;3.43;;;29.80;53.10;;;;;;4987505;28;20601;-67
2022/06/30 12:13:57;;;;;;;8.00;3.00;;;29.80;53.30;;;;;;4991429;28;20439;-68
2022/06/30 12:16:26;;;;;;;4.53;3.53;;;29.80;52.40;;;;;;4989861;28;20447;-68
2022/06/30 12:18:53;;;;;;;4.90;3.10;;;29.90;52.40;;;;;;4987227;28;20518;-68
2022/06/30 12:21:20;;;;;;;10.00;3.47;;;29.90;54.50;;;;;;4990435;28;21335;-71
2022/06/30 12:23:49;;;;;;;4.47;2.73;;;29.90;55.30;;;;;;4990746;28;20485;-68
2022/06/30 12:26:16;;;;;;;8.00;3.70;;;29.90;54.40;;;;;;4990616;28;20807;-71
2022/06/30 12:28:51;;;;;;;5.13;2.77;;;29.90;55.70;;;;;;4990518;28;21012;-68
2022/06/30 12:31:27;;;;;;;13.40;3.80;;;29.90;54.30;;;;;;4990781;28;20978;-68
2022/06/30 12:33:56;;;;;;;7.27;3.43;;;29.90;55.40;;;;;;4990589;28;20440;-68
2022/06/30 12:36:24;;;;;;;3.33;3.03;;;29.90;56.10;;;;;;4990059;28;20822;-68
2022/06/30 12:38:51;;;;;;;8.17;3.53;;;29.90;55.50;;;;;;4990788;28;20522;-70
2022/06/30 12:41:18;;;;;;;5.93;3.60;;;29.90;54.70;;;;;;4989805;28;20428;-68
2022/06/30 12:43:47;;;;;;;7.43;3.43;;;29.80;53.80;;;;;;4990500;28;20479;-68
2022/06/30 12:46:15;;;;;;;4.50;2.50;;;29.80;55.00;;;;;;4989367;28;20436;-69
2022/06/30 12:48:50;;;;;;;15.07;4.47;;;29.80;54.80;;;;;;4989926;28;20440;-68
2022/06/30 12:51:39;;;;;;;13.33;3.40;;;29.70;55.00;;;;;;4990962;28;20863;-67
2022/06/30 12:54:09;;;;;;;8.07;3.10;;;29.80;54.30;;;;;;4987791;28;20439;-68
2022/06/30 12:56:36;;;;;;;7.20;3.40;;;29.70;54.60;;;;;;4990395;28;20830;-68
2022/06/30 12:59:05;;;;;;;29.77;8.10;;;29.70;55.00;;;;;;4990030;28;20486;-69
2022/06/30 13:01:34;;;;;;;5.10;2.80;;;29.70;55.20;;;;;;4990190;28;20762;-68
2022/06/30 13:04:04;;;;;;;7.70;2.93;;;29.70;55.40;;;;;;4990229;28;20492;-69
2022/06/30 13:06:34;;;;;;;17.60;4.37;;;29.60;54.20;;;;;;4990948;28;20513;-68
2022/06/30 13:09:06;;;;;;;9.63;3.63;;;29.60;54.40;;;;;;4989709;28;20479;-67
2022/06/30 13:11:35;;;;;;;8.33;4.10;;;29.50;54.70;;;;;;4991386;28;20941;-68
2022/06/30 13:14:04;;;;;;;6.00;2.83;;;29.50;54.90;;;;;;4993958;28;20571;-75
2022/06/30 13:16:31;;;;;;;7.60;3.20;;;29.60;55.30;;;;;;4993543;28;20530;-68